createdAt,value
2022-08-25T00:00:22.750Z,22.30
2022-08-25T00:03:05.807Z,22.30
2022-08-25T00:05:34.765Z,22.30
2022-08-25T00:08:06.277Z,22.30
2022-08-25T00:10:38.600Z,22.32
2022-08-25T00:13:07.044Z,22.40
2022-08-25T00:15:35.647Z,22.40
2022-08-25T00:18:04.264Z,22.40
2022-08-25T00:20:40.384Z,22.40
2022-08-25T00:23:15.101Z,22.40
2022-08-25T00:25:42.920Z,22.40
2022-08-25T00:28:11.083Z,22.40
2022-08-25T00:30:39.678Z,22.40
2022-08-25T00:33:07.559Z,22.40
2022-08-25T00:35:35.820Z,22.40
2022-08-25T00:38:04.205Z,22.40
2022-08-25T00:40:32.472Z,22.40
2022-08-25T00:43:00.655Z,22.40
2022-08-25T00:45:28.749Z,22.40
2022-08-25T00:47:56.698Z,22.40
2022-08-25T00:50:31.975Z,22.40
2022-08-25T00:53:03.966Z,22.40
2022-08-25T00:55:39.211Z,22.40
2022-08-25T00:58:18.601Z,22.40
2022-08-25T01:00:53.031Z,22.50
2022-08-25T01:03:25.286Z,22.50
2022-08-25T01:06:04.727Z,22.50
2022-08-25T01:08:34.016Z,22.50
2022-08-25T01:11:05.932Z,22.50
2022-08-25T01:13:41.210Z,22.50
2022-08-25T01:16:09.465Z,22.50
2022-08-25T01:18:54.864Z,22.50
2022-08-25T01:21:25.569Z,22.60
2022-08-25T01:23:58.185Z,22.60
2022-08-25T01:26:31.588Z,22.60
2022-08-25T01:29:21.451Z,22.60
2022-08-25T01:31:52.427Z,22.70
2022-08-25T01:34:21.416Z,22.70
2022-08-25T01:36:49.512Z,22.70
2022-08-25T01:39:17.655Z,22.70
2022-08-25T01:41:48.381Z,22.70
2022-08-25T01:44:19.332Z,22.74
2022-08-25T01:46:47.250Z,22.80
2022-08-25T01:49:15.132Z,22.80
2022-08-25T01:51:51.229Z,22.80
2022-08-25T01:54:19.873Z,22.80
2022-08-25T01:56:48.062Z,22.80
2022-08-25T01:59:21.625Z,22.80
2022-08-25T02:01:59.638Z,22.80
2022-08-25T02:04:32.433Z,22.80
2022-08-25T02:07:04.524Z,22.80
2022-08-25T02:09:33.443Z,22.80
2022-08-25T02:12:01.293Z,22.80
2022-08-25T02:14:29.329Z,22.80
2022-08-25T02:16:57.414Z,22.80
2022-08-25T02:19:26.098Z,22.80
2022-08-25T02:21:53.909Z,22.80
2022-08-25T02:24:21.679Z,22.80
2022-08-25T02:26:50.599Z,22.78
2022-08-25T02:29:18.610Z,22.70
2022-08-25T02:31:47.201Z,22.72
2022-08-25T02:34:15.339Z,22.70
2022-08-25T02:36:44.208Z,22.72
2022-08-25T02:39:13.024Z,22.70
2022-08-25T02:41:41.073Z,22.70
2022-08-25T02:44:09.352Z,22.70
2022-08-25T02:46:38.284Z,22.70
2022-08-25T02:49:07.801Z,22.60
2022-08-25T02:51:36.747Z,22.60
2022-08-25T02:54:07.156Z,22.60
2022-08-25T02:56:35.168Z,22.60
2022-08-25T02:59:03.866Z,22.60
2022-08-25T03:01:32.927Z,22.60
2022-08-25T03:04:02.125Z,22.60
2022-08-25T03:06:30.678Z,22.60
2022-08-25T03:08:59.164Z,22.60
2022-08-25T03:11:27.193Z,22.60
2022-08-25T03:13:56.473Z,22.60
2022-08-25T03:16:27.923Z,22.60
2022-08-25T03:18:57.547Z,22.60
2022-08-25T03:21:27.293Z,22.60
2022-08-25T03:23:56.532Z,22.60
2022-08-25T03:26:43.585Z,22.60
2022-08-25T03:29:11.599Z,22.60
2022-08-25T03:31:39.660Z,22.50
2022-08-25T03:34:07.680Z,22.50
2022-08-25T03:36:35.627Z,22.50
2022-08-25T03:39:04.526Z,22.50
2022-08-25T03:41:33.916Z,22.50
2022-08-25T03:44:04.255Z,22.50
2022-08-25T03:46:37.931Z,22.50
2022-08-25T03:49:09.578Z,22.40
2022-08-25T03:51:49.283Z,22.40
2022-08-25T03:54:22.689Z,22.40
2022-08-25T03:56:51.191Z,22.40
2022-08-25T03:59:20.268Z,22.42
2022-08-25T04:01:53.954Z,22.46
2022-08-25T04:04:23.402Z,22.48
2022-08-25T04:06:51.349Z,22.50
2022-08-25T04:09:19.143Z,22.50
2022-08-25T04:11:47.192Z,22.50
2022-08-25T04:14:21.445Z,22.50
2022-08-25T04:16:52.629Z,22.50
2022-08-25T04:19:21.393Z,22.50
2022-08-25T04:21:49.727Z,22.50
2022-08-25T04:24:17.752Z,22.50
2022-08-25T04:26:49.882Z,22.60
2022-08-25T04:29:23.483Z,22.60
2022-08-25T04:31:54.162Z,22.60
2022-08-25T04:34:28.885Z,22.60
2022-08-25T04:37:05.542Z,22.60
2022-08-25T04:39:33.521Z,22.70
2022-08-25T04:42:02.447Z,22.70
2022-08-25T04:44:32.030Z,22.70
2022-08-25T04:47:00.829Z,22.80
2022-08-25T04:49:29.018Z,22.80
2022-08-25T04:51:57.666Z,22.80
2022-08-25T04:54:26.071Z,22.90
2022-08-25T04:56:54.549Z,22.90
2022-08-25T04:59:30.125Z,23.00
2022-08-25T05:02:03.195Z,23.00
2022-08-25T05:04:35.299Z,23.10
2022-08-25T05:07:04.564Z,23.10
2022-08-25T05:09:33.435Z,23.12
2022-08-25T05:12:03.152Z,23.20
2022-08-25T05:14:32.880Z,23.20
2022-08-25T05:17:01.046Z,23.28
2022-08-25T05:19:29.330Z,23.30
2022-08-25T05:21:57.711Z,23.40
2022-08-25T05:24:28.171Z,23.40
2022-08-25T05:26:57.287Z,23.50
2022-08-25T05:29:25.920Z,23.60
2022-08-25T05:31:54.227Z,23.70
2022-08-25T05:34:22.588Z,23.88
2022-08-25T05:36:51.197Z,24.00
2022-08-25T05:39:19.530Z,24.24
2022-08-25T05:41:47.372Z,24.50
2022-08-25T05:44:19.092Z,24.64
2022-08-25T05:46:49.482Z,24.70
2022-08-25T05:49:17.300Z,24.74
2022-08-25T05:51:45.106Z,24.80
2022-08-25T05:54:12.905Z,24.80
2022-08-25T05:56:41.351Z,24.90
2022-08-25T05:59:09.943Z,24.96
2022-08-25T06:01:56.343Z,25.08
2022-08-25T06:04:24.760Z,25.20
2022-08-25T06:06:55.073Z,25.32
2022-08-25T06:09:24.377Z,25.50
2022-08-25T06:11:55.164Z,25.60
2022-08-25T06:14:24.630Z,25.70
2022-08-25T06:16:53.225Z,26.10
2022-08-25T06:19:23.361Z,26.40
2022-08-25T06:21:55.649Z,26.76
2022-08-25T06:24:26.719Z,27.00
2022-08-25T06:26:55.452Z,27.30
2022-08-25T06:29:24.409Z,27.50
2022-08-25T06:31:52.743Z,27.70
2022-08-25T06:34:23.805Z,27.90
2022-08-25T06:36:52.804Z,27.92
2022-08-25T06:39:21.361Z,27.84
2022-08-25T06:41:56.846Z,27.70
2022-08-25T06:44:30.507Z,27.70
2022-08-25T06:46:58.339Z,27.60
2022-08-25T06:49:31.853Z,27.60
2022-08-25T06:52:02.647Z,27.60
2022-08-25T06:54:30.471Z,27.58
2022-08-25T06:56:58.295Z,27.54
2022-08-25T06:59:29.542Z,27.50
2022-08-25T07:02:03.267Z,27.50
2022-08-25T07:04:34.082Z,27.40
2022-08-25T07:07:02.911Z,27.48
2022-08-25T07:09:31.465Z,27.50
2022-08-25T07:11:59.530Z,27.60
2022-08-25T07:14:27.507Z,27.76
2022-08-25T07:16:55.349Z,28.10
2022-08-25T07:19:23.372Z,28.42
2022-08-25T07:21:54.297Z,28.80
2022-08-25T07:24:22.748Z,29.00
2022-08-25T07:26:51.309Z,29.30
2022-08-25T07:29:32.092Z,29.40
2022-08-25T07:32:02.712Z,29.50
2022-08-25T07:34:52.451Z,29.60
2022-08-25T07:37:47.858Z,29.72
2022-08-25T07:40:18.157Z,29.80
2022-08-25T07:42:46.215Z,29.90
2022-08-25T07:45:15.608Z,30.10
2022-08-25T07:47:51.746Z,30.30
2022-08-25T07:50:20.588Z,30.30
2022-08-25T07:52:49.767Z,30.40
2022-08-25T07:55:27.045Z,30.58
2022-08-25T07:58:11.003Z,30.70
2022-08-25T08:00:42.231Z,30.64
2022-08-25T08:03:19.949Z,30.60
2022-08-25T08:05:58.321Z,30.70
2022-08-25T08:08:26.447Z,30.80
2022-08-25T08:11:04.053Z,30.80
2022-08-25T08:13:37.998Z,30.96
2022-08-25T08:16:13.623Z,31.10
2022-08-25T08:18:43.735Z,31.20
2022-08-25T08:21:19.174Z,31.20
2022-08-25T08:23:49.187Z,31.38
2022-08-25T08:26:18.123Z,31.30
2022-08-25T08:28:52.094Z,31.30
2022-08-25T08:31:23.771Z,31.30
2022-08-25T08:33:56.497Z,31.30
2022-08-25T08:36:26.124Z,31.20
2022-08-25T08:38:54.021Z,31.40
2022-08-25T08:42:10.983Z,31.40
2022-08-25T08:45:02.612Z,31.10
2022-08-25T08:48:04.525Z,31.00
2022-08-25T08:51:14.432Z,31.14
2022-08-25T08:53:52.901Z,31.48
2022-08-25T08:56:38.444Z,31.60
2022-08-25T08:59:30.306Z,31.70
2022-08-25T09:02:02.770Z,31.80
2022-08-25T09:05:07.155Z,31.88
2022-08-25T09:07:48.417Z,31.90
2022-08-25T09:10:20.303Z,31.90
2022-08-25T09:13:37.705Z,32.10
2022-08-25T09:16:47.201Z,32.26
2022-08-25T09:19:42.010Z,32.30
2022-08-25T09:22:36.960Z,32.40
2022-08-25T09:25:48.579Z,32.50
2022-08-25T09:28:28.860Z,32.30
2022-08-25T09:31:05.445Z,32.20
2022-08-25T09:33:35.588Z,32.10
2022-08-25T09:36:06.164Z,32.10
2022-08-25T09:38:34.829Z,32.00
2022-08-25T09:41:03.775Z,32.10
2022-08-25T09:43:40.996Z,32.02
2022-08-25T09:46:08.829Z,32.20
2022-08-25T09:48:44.335Z,32.10
2022-08-25T09:51:42.571Z,32.10
2022-08-25T09:54:13.978Z,32.10
2022-08-25T09:56:56.348Z,32.08
2022-08-25T09:59:34.102Z,32.08
2022-08-25T10:02:15.741Z,32.18
2022-08-25T10:04:43.753Z,32.38
2022-08-25T10:07:35.490Z,32.40
2022-08-25T10:10:18.380Z,32.50
2022-08-25T10:12:51.580Z,32.60
2022-08-25T10:15:33.136Z,32.74
2022-08-25T10:18:28.308Z,32.70
2022-08-25T10:21:07.608Z,32.78
2022-08-25T10:23:46.347Z,32.80
2022-08-25T10:26:48.725Z,32.80
2022-08-25T10:29:22.550Z,32.80
2022-08-25T10:32:12.279Z,32.80
2022-08-25T10:34:51.853Z,32.88
2022-08-25T10:37:40.003Z,33.00
2022-08-25T10:40:54.221Z,33.10
2022-08-25T10:43:36.609Z,33.10
2022-08-25T10:46:15.938Z,33.20
2022-08-25T10:49:25.459Z,33.20
2022-08-25T10:52:17.640Z,33.10
2022-08-25T10:55:30.638Z,33.20
2022-08-25T10:58:30.613Z,33.40
2022-08-25T11:01:13.873Z,33.40
2022-08-25T11:03:58.543Z,33.40
2022-08-25T11:06:40.939Z,33.50
2022-08-25T11:09:14.290Z,33.50
2022-08-25T11:12:03.193Z,33.56
2022-08-25T11:14:40.044Z,33.50
2022-08-25T11:17:20.484Z,33.50
2022-08-25T11:19:53.864Z,33.48
2022-08-25T11:22:38.107Z,33.60
2022-08-25T11:25:27.142Z,33.54
2022-08-25T11:28:13.401Z,33.50
2022-08-25T11:30:41.733Z,33.50
2022-08-25T11:33:17.353Z,33.60
2022-08-25T11:35:59.250Z,33.70
2022-08-25T11:38:59.136Z,33.64
2022-08-25T11:41:41.098Z,33.60
2022-08-25T11:44:38.737Z,33.70
2022-08-25T11:47:39.750Z,33.86
2022-08-25T11:50:30.219Z,33.94
2022-08-25T11:53:28.890Z,34.02
2022-08-25T11:56:33.149Z,34.10
2022-08-25T11:59:03.096Z,34.00
2022-08-25T12:01:40.272Z,34.10
2022-08-25T12:04:45.240Z,34.30
2022-08-25T12:07:22.042Z,34.40
2022-08-25T12:09:55.893Z,34.50
2022-08-25T12:12:36.955Z,34.40
2022-08-25T12:15:32.299Z,34.30
2022-08-25T12:18:09.485Z,34.28
2022-08-25T12:20:54.487Z,34.30
2022-08-25T12:23:53.278Z,34.30
2022-08-25T12:26:50.749Z,34.50
2022-08-25T12:29:45.119Z,34.60
2022-08-25T12:33:00.593Z,34.58
2022-08-25T12:35:49.772Z,34.78
2022-08-25T12:38:31.791Z,34.80
2022-08-25T12:41:15.269Z,34.90
2022-08-25T12:43:49.693Z,35.00
2022-08-25T12:46:25.704Z,35.24
2022-08-25T12:49:01.423Z,35.30
2022-08-25T12:51:48.682Z,35.32
2022-08-25T12:54:57.768Z,35.50
2022-08-25T12:57:45.172Z,35.64
2022-08-25T13:03:35.317Z,35.90
2022-08-25T13:06:33.704Z,36.10
2022-08-25T13:09:38.966Z,36.10
2022-08-25T13:12:24.862Z,36.00
2022-08-25T13:14:56.505Z,35.84
2022-08-25T13:17:42.441Z,35.76
2022-08-25T13:20:24.569Z,35.84
2022-08-25T13:22:58.227Z,36.00
2022-08-25T13:25:32.152Z,36.10
2022-08-25T13:28:05.267Z,36.30
2022-08-25T13:30:36.973Z,36.60
2022-08-25T13:33:22.600Z,36.64
2022-08-25T13:36:14.442Z,36.50
2022-08-25T13:38:45.880Z,36.70
2022-08-25T13:41:28.960Z,36.66
2022-08-25T13:44:02.558Z,36.50
2022-08-25T13:46:31.684Z,36.76
2022-08-25T13:49:06.167Z,37.10
2022-08-25T13:51:34.693Z,37.14
2022-08-25T13:54:09.547Z,37.30
2022-08-25T13:56:42.318Z,37.78
2022-08-25T13:59:39.994Z,39.12
2022-08-25T14:02:19.323Z,41.00
2022-08-25T14:04:50.554Z,42.38
2022-08-25T14:07:20.341Z,43.48
2022-08-25T14:09:55.632Z,44.14
2022-08-25T14:12:45.497Z,45.24
2022-08-25T14:15:20.143Z,45.68
2022-08-25T14:18:21.164Z,46.28
2022-08-25T14:20:56.378Z,47.16
2022-08-25T14:23:30.772Z,47.40
2022-08-25T14:25:59.062Z,47.22
2022-08-25T14:28:30.284Z,45.78
2022-08-25T14:31:08.458Z,43.58
2022-08-25T14:34:09.392Z,41.70
2022-08-25T14:36:41.028Z,40.04
2022-08-25T14:39:10.336Z,38.94
2022-08-25T14:41:41.134Z,37.80
2022-08-25T14:44:10.913Z,37.12
2022-08-25T14:46:50.318Z,36.70
2022-08-25T14:49:33.759Z,36.10
2022-08-25T14:52:09.975Z,35.76
2022-08-25T14:54:37.876Z,35.26
2022-08-25T14:57:08.462Z,35.00
2022-08-25T14:59:36.852Z,34.70
2022-08-25T15:02:20.065Z,34.34
2022-08-25T15:04:55.115Z,34.12
2022-08-25T15:07:51.104Z,34.00
2022-08-25T15:10:19.461Z,33.80
2022-08-25T15:12:51.155Z,33.78
2022-08-25T15:15:22.337Z,33.70
2022-08-25T15:17:50.598Z,33.54
2022-08-25T15:20:19.228Z,33.50
2022-08-25T15:22:48.171Z,33.50
2022-08-25T15:25:17.036Z,33.40
2022-08-25T15:27:46.374Z,33.38
2022-08-25T15:30:15.210Z,33.30
2022-08-25T15:32:44.039Z,33.30
2022-08-25T15:35:16.386Z,33.30
2022-08-25T15:37:44.243Z,33.20
2022-08-25T15:40:12.294Z,33.20
2022-08-25T15:42:42.976Z,33.10
2022-08-25T15:45:14.667Z,33.00
2022-08-25T15:47:42.590Z,32.80
2022-08-25T15:50:17.594Z,32.70
2022-08-25T15:52:48.619Z,32.70
2022-08-25T15:55:17.804Z,32.70
2022-08-25T15:57:49.537Z,32.68
2022-08-25T16:00:18.439Z,32.54
2022-08-25T16:02:46.477Z,32.60
2022-08-25T16:05:16.229Z,32.60
2022-08-25T16:07:46.210Z,32.50
2022-08-25T16:10:20.227Z,32.50
2022-08-25T16:12:48.235Z,32.32
2022-08-25T16:15:16.201Z,32.10
2022-08-25T16:17:46.976Z,31.90
2022-08-25T16:20:17.894Z,31.70
2022-08-25T16:22:46.620Z,31.60
2022-08-25T16:25:15.443Z,31.40
2022-08-25T16:27:45.638Z,31.30
2022-08-25T16:30:17.407Z,31.20
2022-08-25T16:32:46.739Z,31.10
2022-08-25T16:35:14.951Z,31.06
2022-08-25T16:37:42.839Z,31.00
2022-08-25T16:40:14.894Z,31.00
2022-08-25T16:42:42.942Z,30.90
2022-08-25T16:45:11.830Z,30.90
2022-08-25T16:47:40.177Z,30.80
2022-08-25T16:50:11.550Z,30.70
2022-08-25T16:52:59.294Z,30.60
2022-08-25T16:55:39.433Z,30.50
2022-08-25T16:58:12.568Z,30.40
2022-08-25T17:00:43.871Z,30.30
2022-08-25T17:03:13.097Z,30.20
2022-08-25T17:05:42.815Z,30.18
2022-08-25T17:08:29.252Z,30.10
2022-08-25T17:11:30.714Z,30.10
2022-08-25T17:14:06.811Z,30.00
2022-08-25T17:16:39.141Z,29.86
2022-08-25T17:19:12.827Z,29.90
2022-08-25T17:21:45.299Z,29.80
2022-08-25T17:24:15.233Z,29.80
2022-08-25T17:26:44.599Z,29.60
2022-08-25T17:29:12.918Z,29.60
2022-08-25T17:31:42.934Z,29.60
2022-08-25T17:34:16.354Z,29.60
2022-08-25T17:36:45.298Z,29.50
2022-08-25T17:39:14.887Z,29.50
2022-08-25T17:41:44.039Z,29.40
2022-08-25T17:44:13.512Z,29.38
2022-08-25T17:46:47.332Z,29.38
2022-08-25T17:49:17.348Z,29.30
2022-08-25T17:51:45.848Z,29.28
2022-08-25T17:54:14.273Z,29.30
2022-08-25T17:56:42.138Z,29.20
2022-08-25T17:59:11.621Z,29.20
2022-08-25T18:01:40.846Z,29.20
2022-08-25T18:04:17.612Z,29.10
2022-08-25T18:06:48.393Z,29.00
2022-08-25T18:09:17.865Z,28.90
2022-08-25T18:11:46.391Z,28.82
2022-08-25T18:14:16.650Z,28.80
2022-08-25T18:16:46.213Z,28.80
2022-08-25T18:19:14.643Z,28.70
2022-08-25T18:21:43.488Z,28.60
2022-08-25T18:24:13.311Z,28.50
2022-08-25T18:26:42.362Z,28.50
2022-08-25T18:29:13.318Z,28.40
2022-08-25T18:31:42.262Z,28.38
2022-08-25T18:34:11.549Z,28.30
2022-08-25T18:36:39.651Z,28.30
2022-08-25T18:39:26.583Z,28.20
2022-08-25T18:41:57.337Z,28.10
2022-08-25T18:44:25.009Z,28.04
2022-08-25T18:46:52.824Z,28.00
2022-08-25T18:49:22.077Z,28.00
2022-08-25T18:51:54.711Z,28.00
2022-08-25T18:54:23.657Z,28.00
2022-08-25T18:56:54.085Z,27.90
2022-08-25T18:59:23.523Z,27.90
2022-08-25T19:01:53.831Z,27.70
2022-08-25T19:04:28.615Z,27.64
2022-08-25T19:07:01.897Z,27.62
2022-08-25T19:09:31.502Z,27.60
2022-08-25T19:11:59.850Z,27.50
2022-08-25T19:14:28.359Z,27.40
2022-08-25T19:16:58.057Z,27.30
2022-08-25T19:19:26.369Z,27.20
2022-08-25T19:21:54.239Z,27.18
2022-08-25T19:24:22.463Z,27.10
2022-08-25T19:26:54.583Z,27.00
2022-08-25T19:29:24.615Z,26.90
2022-08-25T19:31:53.336Z,26.82
2022-08-25T19:34:35.823Z,26.78
2022-08-25T19:37:05.451Z,26.70
2022-08-25T19:39:39.118Z,26.60
2022-08-25T19:42:08.641Z,26.50
2022-08-25T19:44:56.484Z,26.50
2022-08-25T19:47:24.357Z,26.40
2022-08-25T19:52:26.763Z,26.30
2022-08-25T19:54:56.330Z,26.20
2022-08-25T19:57:28.486Z,26.20
2022-08-25T20:00:24.904Z,26.10
2022-08-25T20:02:52.822Z,26.00
2022-08-25T20:05:23.856Z,26.00
2022-08-25T20:07:56.304Z,25.90
2022-08-25T20:10:28.973Z,25.86
2022-08-25T20:12:58.759Z,25.80
2022-08-25T20:15:27.392Z,25.80
2022-08-25T20:17:56.674Z,25.70
2022-08-25T20:20:25.261Z,25.70
2022-08-25T20:23:20.253Z,25.70
2022-08-25T20:25:48.148Z,25.64
2022-08-25T20:28:18.875Z,25.60
2022-08-25T20:30:47.147Z,25.50
2022-08-25T20:33:22.823Z,25.50
2022-08-25T20:35:53.144Z,25.40
2022-08-25T20:38:21.230Z,25.30
2022-08-25T20:40:49.082Z,25.30
2022-08-25T20:43:17.939Z,25.20
2022-08-25T20:45:49.192Z,25.18
2022-08-25T20:48:17.854Z,25.10
2022-08-25T20:50:45.634Z,25.10
2022-08-25T20:53:26.244Z,25.00
2022-08-25T20:55:54.334Z,24.90
2022-08-25T20:58:22.121Z,24.90
2022-08-25T21:00:51.522Z,24.80
2022-08-25T21:03:20.699Z,24.80
2022-08-25T21:05:48.623Z,24.80
2022-08-25T21:08:22.006Z,24.80
2022-08-25T21:10:51.679Z,24.70
2022-08-25T21:13:19.475Z,24.70
2022-08-25T21:15:48.920Z,24.70
2022-08-25T21:18:16.662Z,24.70
2022-08-25T21:20:44.491Z,24.60
2022-08-25T21:23:12.357Z,24.60
2022-08-25T21:25:41.965Z,24.60
2022-08-25T21:28:09.919Z,24.60
2022-08-25T21:30:44.721Z,24.50
2022-08-25T21:33:15.525Z,24.40
2022-08-25T21:35:43.745Z,24.40
2022-08-25T21:38:11.513Z,24.40
2022-08-25T21:40:39.805Z,24.30
2022-08-25T21:43:12.734Z,24.30
2022-08-25T21:45:46.669Z,24.30
2022-08-25T21:48:15.828Z,24.30
2022-08-25T21:50:43.937Z,24.20
2022-08-25T21:53:11.931Z,24.20
2022-08-25T21:55:42.057Z,24.20
2022-08-25T21:58:10.272Z,24.10
2022-08-25T22:00:38.222Z,24.10
2022-08-25T22:03:07.304Z,24.10
2022-08-25T22:05:37.236Z,24.04
2022-08-25T22:08:05.465Z,24.00
2022-08-25T22:10:33.214Z,24.00
2022-08-25T22:13:01.681Z,23.90
2022-08-25T22:15:30.668Z,23.90
2022-08-25T22:17:58.484Z,23.82
2022-08-25T22:20:26.318Z,23.80
2022-08-25T22:22:57.495Z,23.80
2022-08-25T22:25:28.026Z,23.70
2022-08-25T22:27:57.210Z,23.70
2022-08-25T22:30:29.410Z,23.60
2022-08-25T22:32:59.013Z,23.60
2022-08-25T22:35:30.817Z,23.60
2022-08-25T22:38:01.381Z,23.60
2022-08-25T22:40:32.702Z,23.60
2022-08-25T22:43:00.577Z,23.60
2022-08-25T22:45:29.494Z,23.56
2022-08-25T22:47:57.255Z,23.50
2022-08-25T22:50:25.932Z,23.50
2022-08-25T22:52:54.595Z,23.50
2022-08-25T22:55:23.799Z,23.40
2022-08-25T22:57:54.855Z,23.40
2022-08-25T23:00:22.829Z,23.40
2022-08-25T23:02:53.378Z,23.40
2022-08-25T23:05:21.568Z,23.30
2022-08-25T23:07:50.596Z,23.30
2022-08-25T23:10:20.761Z,23.30
2022-08-25T23:12:48.572Z,23.30
2022-08-25T23:15:16.370Z,23.20
2022-08-25T23:17:44.251Z,23.20
2022-08-25T23:20:31.854Z,23.10
2022-08-25T23:23:01.116Z,23.10
2022-08-25T23:25:28.905Z,23.02
2022-08-25T23:27:58.541Z,23.00
2022-08-25T23:30:27.291Z,23.00
2022-08-25T23:32:56.248Z,22.90
2022-08-25T23:35:23.993Z,22.90
2022-08-25T23:37:51.765Z,22.90
2022-08-25T23:40:20.208Z,22.90
2022-08-25T23:42:48.214Z,22.80
2022-08-25T23:45:16.514Z,22.80
2022-08-25T23:47:44.359Z,22.80
2022-08-25T23:50:12.839Z,22.74
2022-08-25T23:52:40.638Z,22.70
2022-08-25T23:55:08.879Z,22.70
2022-08-25T23:57:36.556Z,22.60
